Time;durP1;ratioP1;P1;durP2;ratioP2;P2;SDS_P1;SDS_P2;PMS_P1;PMS_P2;Temp;Humidity;BMP_temperature;BMP_pressure;BME280_temperature;BME280_humidity;BME280_pressure;Samples;Min_cycle;Max_cycle;Signal;HPM_P1;HPM_P2
2022/12/18 00:01:49;;;;;;;12.20;7.55;;;;;;;;;;5050323;28;20478;-87
2022/12/18 00:04:24;;;;;;;15.13;7.80;;;;;;;;;;5049657;28;20513;-86
2022/12/18 00:06:52;;;;;;;15.40;7.38;;;;;;;;;;5050235;28;20145;-86
2022/12/18 00:09:19;;;;;;;13.27;6.93;;;;;;;;;;5050018;28;20041;-87
2022/12/18 00:11:46;;;;;;;20.85;8.00;;;;;;;;;;5050191;28;20061;-86
2022/12/18 00:14:14;;;;;;;12.48;6.60;;;;;;;;;;5049916;28;20059;-86
2022/12/18 00:16:43;;;;;;;12.60;6.28;;;;;;;;;;5050158;28;20064;-87
2022/12/18 00:19:11;;;;;;;14.15;7.40;;;;;;;;;;5050298;28;20051;-86
2022/12/18 00:21:39;;;;;;;13.05;7.13;;;;;;;;;;5049993;28;20095;-87
2022/12/18 00:24:10;;;;;;;13.15;7.40;;;;;;;;;;5049577;28;20057;-87
2022/12/18 00:26:38;;;;;;;13.02;6.50;;;;;;;;;;5050198;28;20485;-87
2022/12/18 00:29:07;;;;;;;16.25;6.85;;;;;;;;;;5050150;28;20053;-86
2022/12/18 00:31:35;;;;;;;18.13;8.85;;;;;;;;;;5050058;28;20049;-87
2022/12/18 00:34:02;;;;;;;17.67;8.90;;;;;;;;;;5049669;28;20053;-87
2022/12/18 00:36:31;;;;;;;18.60;8.15;;;;;;;;;;5049653;28;20061;-87
2022/12/18 00:38:59;;;;;;;16.30;7.82;;;;;;;;;;5049634;28;20429;-87
2022/12/18 00:44:14;;;;;;;16.73;6.93;;;;;;;;;;5034163;28;20050;-86
2022/12/18 00:46:42;;;;;;;14.48;7.30;;;;;;;;;;5049351;28;20483;-87
2022/12/18 00:49:10;;;;;;;13.52;6.65;;;;;;;;;;5049146;28;20485;-87
2022/12/18 00:51:37;;;;;;;17.17;7.10;;;;;;;;;;5049558;28;20065;-87
2022/12/18 00:54:04;;;;;;;15.98;7.75;;;;;;;;;;5049521;28;20512;-87
2022/12/18 00:56:31;;;;;;;14.35;7.45;;;;;;;;;;5048835;28;20478;-87
2022/12/18 00:58:59;;;;;;;13.18;6.65;;;;;;;;;;5048417;28;20053;-87
2022/12/18 01:01:26;;;;;;;13.80;7.32;;;;;;;;;;5051414;28;20438;-88
2022/12/18 01:03:53;;;;;;;14.23;7.70;;;;;;;;;;5063993;28;20064;-89
2022/12/18 01:06:21;;;;;;;11.52;7.13;;;;;;;;;;5053146;28;20063;-86
2022/12/18 01:08:48;;;;;;;19.13;8.70;;;;;;;;;;5049356;28;20045;-86
2022/12/18 01:11:16;;;;;;;12.93;7.60;;;;;;;;;;5049648;28;20060;-86
2022/12/18 01:13:44;;;;;;;20.38;9.32;;;;;;;;;;5050256;28;20064;-86
2022/12/18 01:16:12;;;;;;;20.35;9.73;;;;;;;;;;5058025;28;20049;-85
2022/12/18 01:18:39;;;;;;;21.10;9.05;;;;;;;;;;5070424;28;20050;-86
2022/12/18 01:21:11;;;;;;;22.35;8.93;;;;;;;;;;5060074;28;20057;-86
2022/12/18 01:23:39;;;;;;;20.50;7.88;;;;;;;;;;5049797;28;20045;-86
2022/12/18 01:26:12;;;;;;;17.48;7.93;;;;;;;;;;5049022;28;20053;-85
2022/12/18 01:28:39;;;;;;;20.55;8.15;;;;;;;;;;5049214;28;20053;-86
2022/12/18 01:31:15;;;;;;;17.92;8.15;;;;;;;;;;5049253;28;20632;-86
2022/12/18 01:33:42;;;;;;;19.20;7.57;;;;;;;;;;5049179;28;20045;-86
2022/12/18 01:36:15;;;;;;;15.57;8.05;;;;;;;;;;5049100;28;20076;-86
2022/12/18 01:38:42;;;;;;;;;;;;;;;;;;5049404;28;20058;-85
2022/12/18 01:41:09;;;;;;;17.15;6.72;;;;;;;;;;5032269;28;19945;-86
2022/12/18 01:43:49;;;;;;;15.23;7.50;;;;;;;;;;5048939;28;20053;-86
2022/12/18 01:46:16;;;;;;;14.88;7.78;;;;;;;;;;5048811;28;20050;-86
2022/12/18 01:48:45;;;;;;;14.73;6.75;;;;;;;;;;5048453;28;20061;-86
2022/12/18 01:51:13;;;;;;;14.52;7.47;;;;;;;;;;5048661;28;20056;-86
2022/12/18 01:53:41;;;;;;;14.25;7.40;;;;;;;;;;5048880;28;20510;-86
2022/12/18 01:56:13;;;;;;;11.70;6.68;;;;;;;;;;5048515;28;20056;-88
2022/12/18 01:58:44;;;;;;;11.93;6.93;;;;;;;;;;5048708;28;20048;-88
2022/12/18 02:01:11;;;;;;;17.13;7.13;;;;;;;;;;5048756;28;20050;-88
2022/12/18 02:03:41;;;;;;;14.77;6.40;;;;;;;;;;5033000;28;20041;-88
2022/12/18 02:06:21;;;;;;;13.82;6.72;;;;;;;;;;5048398;28;20475;-88
2022/12/18 02:09:07;;;;;;;12.43;6.32;;;;;;;;;;5048797;28;20041;-86
2022/12/18 02:11:43;;;;;;;13.68;5.68;;;;;;;;;;5051326;28;20050;-89
2022/12/18 02:14:19;;;;;;;11.50;5.80;;;;;;;;;;5051825;28;20045;-88
2022/12/18 02:16:58;;;;;;;14.27;6.90;;;;;;;;;;5053941;28;20049;-89
2022/12/18 02:19:38;;;;;;;14.45;5.97;;;;;;;;;;5066822;28;20049;-88
2022/12/18 02:22:24;;;;;;;10.98;5.75;;;;;;;;;;5052786;28;20061;-88
2022/12/18 02:24:54;;;;;;;14.13;6.00;;;;;;;;;;5051873;28;20049;-88
2022/12/18 02:27:21;;;;;;;15.77;5.65;;;;;;;;;;5052132;28;20452;-88
2022/12/18 02:29:51;;;;;;;10.27;5.78;;;;;;;;;;5052121;28;20049;-88
2022/12/18 02:32:30;;;;;;;10.98;5.82;;;;;;;;;;5036451;28;20099;-86
2022/12/18 02:34:58;;;;;;;11.82;6.10;;;;;;;;;;5051863;28;20060;-86
2022/12/18 02:37:26;;;;;;;11.52;4.97;;;;;;;;;;5052120;28;20068;-86
2022/12/18 02:39:55;;;;;;;9.05;4.75;;;;;;;;;;5052017;28;20505;-87
2022/12/18 02:42:22;;;;;;;9.07;4.90;;;;;;;;;;5052084;28;20060;-86
2022/12/18 02:44:51;;;;;;;14.80;5.90;;;;;;;;;;5051285;28;20136;-86
2022/12/18 02:47:20;;;;;;;9.45;5.55;;;;;;;;;;5035946;28;20061;-87
2022/12/18 02:50:08;;;;;;;10.18;6.00;;;;;;;;;;5051748;28;20057;-86
2022/12/18 02:52:35;;;;;;;10.27;5.57;;;;;;;;;;5051705;28;20114;-89
2022/12/18 02:55:08;;;;;;;11.10;5.63;;;;;;;;;;5051651;28;20049;-86
2022/12/18 02:57:41;;;;;;;7.97;5.22;;;;;;;;;;5051645;28;20049;-88
2022/12/18 03:00:11;;;;;;;12.43;6.43;;;;;;;;;;5051478;28;20053;-88
2022/12/18 03:02:38;;;;;;;11.82;6.03;;;;;;;;;;5051553;28;20057;-88
2022/12/18 03:05:08;;;;;;;14.07;6.10;;;;;;;;;;5051368;28;20464;-89
2022/12/18 03:07:39;;;;;;;8.77;4.85;;;;;;;;;;5051517;28;20049;-89
2022/12/18 03:10:07;;;;;;;10.73;5.78;;;;;;;;;;5051502;28;20061;-88
2022/12/18 03:12:45;;;;;;;14.18;5.20;;;;;;;;;;5051277;28;20067;-88
2022/12/18 03:15:19;;;;;;;17.38;8.60;;;;;;;;;;5051194;28;20053;-88
2022/12/18 03:17:49;;;;;;;16.48;7.45;;;;;;;;;;5051378;28;20061;-89
2022/12/18 03:20:19;;;;;;;14.38;5.93;;;;;;;;;;5051153;28;20050;-89
2022/12/18 03:22:47;;;;;;;15.63;6.85;;;;;;;;;;5050157;28;20045;-88
2022/12/18 03:25:15;;;;;;;13.55;6.20;;;;;;;;;;5050775;28;20108;-88
2022/12/18 03:27:45;;;;;;;11.52;6.07;;;;;;;;;;5051253;28;20069;-89
2022/12/18 03:30:14;;;;;;;13.23;6.72;;;;;;;;;;5051004;28;20135;-89
2022/12/18 03:33:00;;;;;;;10.00;6.03;;;;;;;;;;5065690;28;20057;-89
2022/12/18 03:35:29;;;;;;;11.18;5.47;;;;;;;;;;5054163;28;20379;-89
2022/12/18 03:37:56;;;;;;;15.05;7.18;;;;;;;;;;5050958;28;20080;-89
2022/12/18 03:40:27;;;;;;;13.18;6.35;;;;;;;;;;5050910;28;20050;-89
2022/12/18 03:43:04;;;;;;;11.77;5.50;;;;;;;;;;5050979;28;20059;-89
2022/12/18 03:45:35;;;;;;;9.93;5.85;;;;;;;;;;5050579;28;20049;-89
2022/12/18 03:48:22;;;;;;;13.45;6.13;;;;;;;;;;5050342;28;20057;-89
2022/12/18 03:50:55;;;;;;;10.07;5.50;;;;;;;;;;5032767;28;20053;-89
2022/12/18 03:53:41;;;;;;;13.43;4.95;;;;;;;;;;5050543;28;20049;-87
2022/12/18 03:56:10;;;;;;;9.73;5.45;;;;;;;;;;5050652;28;20409;-89
2022/12/18 03:58:39;;;;;;;9.75;5.10;;;;;;;;;;5050434;28;20045;-89
2022/12/18 04:01:11;;;;;;;11.07;5.50;;;;;;;;;;5050031;28;20525;-89
2022/12/18 04:03:39;;;;;;;9.25;3.80;;;;;;;;;;5050500;28;20107;-89
2022/12/18 04:06:08;;;;;;;12.25;5.18;;;;;;;;;;5050119;28;20060;-88
2022/12/18 04:08:36;;;;;;;12.40;4.82;;;;;;;;;;5050267;28;20084;-88
2022/12/18 04:11:03;;;;;;;14.82;5.43;;;;;;;;;;5050245;28;20486;-89
2022/12/18 04:13:38;;;;;;;10.00;5.03;;;;;;;;;;5050207;28;20045;-89
2022/12/18 04:16:06;;;;;;;15.85;5.15;;;;;;;;;;5050190;28;20111;-89
2022/12/18 04:18:33;;;;;;;15.10;5.22;;;;;;;;;;5050620;28;20390;-89
2022/12/18 04:21:01;;;;;;;8.65;4.93;;;;;;;;;;5050813;28;20045;-88
2022/12/18 04:23:28;;;;;;;13.82;5.13;;;;;;;;;;5056142;28;20057;-88
2022/12/18 04:25:55;;;;;;;17.65;7.65;;;;;;;;;;5071012;28;20057;-89
2022/12/18 04:28:22;;;;;;;14.35;8.05;;;;;;;;;;5064737;28;20061;-89
2022/12/18 04:30:50;;;;;;;9.45;4.88;;;;;;;;;;5051952;28;20053;-89
2022/12/18 04:33:17;;;;;;;10.48;4.47;;;;;;;;;;5050387;28;20049;-89
2022/12/18 04:35:45;;;;;;;8.63;4.68;;;;;;;;;;5049802;28;20053;-89
2022/12/18 04:38:12;;;;;;;11.27;5.10;;;;;;;;;;5049679;28;20051;-88
2022/12/18 04:40:40;;;;;;;6.93;4.65;;;;;;;;;;5049759;28;20063;-89
2022/12/18 04:43:08;;;;;;;15.23;6.13;;;;;;;;;;5049528;28;20458;-89
2022/12/18 04:45:35;;;;;;;7.72;5.00;;;;;;;;;;5052568;28;20050;-89
2022/12/18 04:48:03;;;;;;;5.80;4.82;;;;;;;;;;5065106;28;20050;-89
2022/12/18 04:50:30;;;;;;;11.43;5.53;;;;;;;;;;5050471;28;20049;-89
2022/12/18 04:52:58;;;;;;;9.30;5.38;;;;;;;;;;5049676;28;20053;-88
2022/12/18 04:55:25;;;;;;;8.73;4.90;;;;;;;;;;5049367;28;20085;-89
2022/12/18 04:57:54;;;;;;;16.27;6.57;;;;;;;;;;5049458;28;20045;-89
2022/12/18 05:00:21;;;;;;;13.95;6.18;;;;;;;;;;5049481;28;20060;-89
2022/12/18 05:02:49;;;;;;;21.05;9.15;;;;;;;;;;5049508;28;20128;-89
2022/12/18 05:05:16;;;;;;;65.93;18.90;;;;;;;;;;5048745;28;20049;-89
2022/12/18 05:07:44;;;;;;;36.65;12.57;;;;;;;;;;5049445;28;20052;-89
2022/12/18 05:10:12;;;;;;;23.10;8.18;;;;;;;;;;5049210;28;20453;-89
2022/12/18 05:12:57;;;;;;;8.63;5.00;;;;;;;;;;5049500;28;20049;-88
2022/12/18 05:15:31;;;;;;;9.00;4.10;;;;;;;;;;5048947;28;20156;-88
2022/12/18 05:17:59;;;;;;;4.43;2.97;;;;;;;;;;5049431;28;20339;-89
2022/12/18 05:20:27;;;;;;;12.35;5.05;;;;;;;;;;5048998;28;20511;-88
2022/12/18 05:22:55;;;;;;;9.70;4.85;;;;;;;;;;5048930;28;20057;-89
2022/12/18 05:25:23;;;;;;;7.57;4.75;;;;;;;;;;5049012;28;20046;-90
2022/12/18 05:27:50;;;;;;;10.93;5.35;;;;;;;;;;5049154;28;20056;-89
2022/12/18 05:30:18;;;;;;;5.72;4.78;;;;;;;;;;5048817;28;20490;-89
2022/12/18 05:32:45;;;;;;;12.63;4.60;;;;;;;;;;5048974;28;20046;-89
2022/12/18 05:35:12;;;;;;;12.73;5.55;;;;;;;;;;5048955;28;20414;-89
2022/12/18 05:37:39;;;;;;;6.95;4.25;;;;;;;;;;5048993;28;20045;-89
2022/12/18 05:40:09;;;;;;;9.00;4.53;;;;;;;;;;5048600;28;20506;-89
2022/12/18 05:42:36;;;;;;;8.15;4.88;;;;;;;;;;5049008;28;20049;-89
2022/12/18 05:45:04;;;;;;;6.13;4.13;;;;;;;;;;5049085;28;20050;-89
2022/12/18 05:47:31;;;;;;;8.13;4.40;;;;;;;;;;5052720;28;20077;-90
2022/12/18 05:49:59;;;;;;;8.02;4.72;;;;;;;;;;5052786;28;20064;-89
2022/12/18 05:52:26;;;;;;;5.95;3.80;;;;;;;;;;5053011;28;20046;-90
2022/12/18 05:54:53;;;;;;;8.80;4.82;;;;;;;;;;5052412;28;20053;-89
2022/12/18 05:57:20;;;;;;;8.18;4.25;;;;;;;;;;5052788;28;20053;-89
2022/12/18 05:59:48;;;;;;;6.28;4.43;;;;;;;;;;5055111;28;20065;-90
2022/12/18 06:02:15;;;;;;;13.35;5.32;;;;;;;;;;5069770;28;20071;-90
2022/12/18 06:04:42;;;;;;;16.90;7.28;;;;;;;;;;5054674;28;20060;-90
2022/12/18 06:07:10;;;;;;;20.45;8.13;;;;;;;;;;5052083;28;20041;-90
2022/12/18 06:09:37;;;;;;;25.33;9.55;;;;;;;;;;5052796;28;20049;-90
2022/12/18 06:12:04;;;;;;;22.30;8.70;;;;;;;;;;5052375;28;20046;-90
2022/12/18 06:14:31;;;;;;;15.57;6.45;;;;;;;;;;5052439;28;20049;-89
2022/12/18 06:16:58;;;;;;;7.28;4.38;;;;;;;;;;5052269;28;20068;-89
2022/12/18 06:19:26;;;;;;;11.40;6.50;;;;;;;;;;5052444;28;20045;-90
2022/12/18 06:21:53;;;;;;;20.92;7.97;;;;;;;;;;5052003;28;20045;-90
2022/12/18 06:24:20;;;;;;;18.33;7.88;;;;;;;;;;5052133;28;20042;-89
2022/12/18 06:26:48;;;;;;;14.93;7.15;;;;;;;;;;5052085;28;20580;-89
2022/12/18 06:29:15;;;;;;;12.50;6.38;;;;;;;;;;5052003;28;20064;-90
2022/12/18 06:31:42;;;;;;;9.95;5.68;;;;;;;;;;5052058;28;20049;-90
2022/12/18 06:34:09;;;;;;;7.07;5.38;;;;;;;;;;5052021;28;20045;-90
2022/12/18 06:36:36;;;;;;;9.40;4.50;;;;;;;;;;5051991;28;20049;-90
2022/12/18 06:39:04;;;;;;;6.40;4.15;;;;;;;;;;5051641;28;20049;-89
2022/12/18 06:41:32;;;;;;;9.93;5.03;;;;;;;;;;5051688;28;20053;-89
2022/12/18 06:43:59;;;;;;;6.18;4.13;;;;;;;;;;5051827;28;20421;-90
2022/12/18 06:46:27;;;;;;;9.60;5.03;;;;;;;;;;5050997;28;20049;-90
2022/12/18 06:48:54;;;;;;;11.88;5.93;;;;;;;;;;5051437;28;20053;-90
2022/12/18 06:51:24;;;;;;;13.30;6.60;;;;;;;;;;5051470;28;20055;-89
2022/12/18 06:53:51;;;;;;;7.43;4.95;;;;;;;;;;5051887;28;20079;-90
2022/12/18 06:56:19;;;;;;;6.22;4.88;;;;;;;;;;5050879;28;20181;-90
2022/12/18 06:58:46;;;;;;;12.43;7.10;;;;;;;;;;5051132;28;20059;-90
2022/12/18 07:01:13;;;;;;;13.30;6.55;;;;;;;;;;5052003;28;20049;-90
2022/12/18 07:03:41;;;;;;;9.50;5.38;;;;;;;;;;5052268;28;20476;-90
2022/12/18 07:06:27;;;;;;;7.03;4.78;;;;;;;;;;5052407;28;20339;-90
2022/12/18 07:08:55;;;;;;;9.57;5.65;;;;;;;;;;5053254;28;20184;-90
2022/12/18 07:11:22;;;;;;;15.18;5.22;;;;;;;;;;5053096;28;20059;-90
2022/12/18 07:13:49;;;;;;;20.65;6.80;;;;;;;;;;5052647;28;20057;-90
2022/12/18 07:16:20;;;;;;;13.15;6.18;;;;;;;;;;5064940;28;20071;-90
2022/12/18 07:18:51;;;;;;;;;;;;;;;;;;5063328;28;20078;-90
2022/12/18 07:21:19;;;;;;;9.65;4.82;;;;;;;;;;5036070;28;20062;-90
2022/12/18 07:23:47;;;;;;;13.90;6.25;;;;;;;;;;5052472;28;20057;-90
2022/12/18 07:26:17;;;;;;;8.38;5.03;;;;;;;;;;5051483;28;20073;-90
2022/12/18 07:28:45;;;;;;;14.23;7.07;;;;;;;;;;5052688;28;20049;-90
2022/12/18 07:31:19;;;;;;;14.20;7.72;;;;;;;;;;5052907;28;20045;-90
2022/12/18 07:33:48;;;;;;;17.10;7.15;;;;;;;;;;5053974;28;20056;-90
2022/12/18 07:36:15;;;;;;;22.42;8.20;;;;;;;;;;5068183;28;20054;-89
2022/12/18 07:38:43;;;;;;;18.17;7.82;;;;;;;;;;5072931;28;20041;-90
2022/12/18 07:41:11;;;;;;;18.13;8.60;;;;;;;;;;5057724;28;20140;-90
2022/12/18 07:43:38;;;;;;;24.65;8.93;;;;;;;;;;5053352;28;20395;-90
2022/12/18 07:46:08;;;;;;;24.75;9.73;;;;;;;;;;5050013;28;20059;-90
2022/12/18 07:48:36;;;;;;;25.63;8.18;;;;;;;;;;5049930;28;20405;-90
2022/12/18 07:51:04;;;;;;;27.42;9.88;;;;;;;;;;5050252;28;20087;-90
2022/12/18 07:53:32;;;;;;;31.13;10.43;;;;;;;;;;5050511;28;20049;-90
2022/12/18 07:56:07;;;;;;;28.55;11.10;;;;;;;;;;5049893;28;20049;-90
2022/12/18 07:58:54;;;;;;;32.35;11.63;;;;;;;;;;5046916;28;20048;-89
2022/12/18 08:01:22;;;;;;;29.55;11.43;;;;;;;;;;5051894;28;20600;-90
2022/12/18 08:03:49;;;;;;;25.88;10.77;;;;;;;;;;5051145;28;20050;-90
2022/12/18 08:06:19;;;;;;;23.35;9.50;;;;;;;;;;5049477;28;20049;-89
2022/12/18 08:08:51;;;;;;;22.63;10.85;;;;;;;;;;5056729;28;20061;-90
2022/12/18 08:11:18;;;;;;;24.98;11.70;;;;;;;;;;5060041;28;20055;-90
2022/12/18 08:13:47;;;;;;;25.35;10.63;;;;;;;;;;5055199;28;20092;-90
2022/12/18 08:16:15;;;;;;;16.50;8.60;;;;;;;;;;5037712;28;20103;-90
2022/12/18 08:18:44;;;;;;;20.60;9.75;;;;;;;;;;5052777;28;20441;-90
2022/12/18 08:21:12;;;;;;;14.10;8.20;;;;;;;;;;5052552;28;20068;-91
2022/12/18 08:23:39;;;;;;;22.67;11.15;;;;;;;;;;5052640;28;20141;-90
2022/12/18 08:26:10;;;;;;;19.73;10.57;;;;;;;;;;5052353;28;20045;-90
2022/12/18 08:28:38;;;;;;;24.27;10.68;;;;;;;;;;5038530;28;20049;-89
2022/12/18 08:31:05;;;;;;;20.52;10.45;;;;;;;;;;5062648;28;20034;-91
2022/12/18 08:33:33;;;;;;;39.13;16.63;;;;;;;;;;5071383;28;20049;-91
2022/12/18 08:36:01;;;;;;;19.75;10.13;;;;;;;;;;5049739;28;20149;-91
2022/12/18 08:38:28;;;;;;;18.55;9.50;;;;;;;;;;5049856;28;20490;-91
2022/12/18 08:41:00;;;;;;;15.80;7.68;;;;;;;;;;5049886;28;20057;-91
2022/12/18 08:46:13;;;;;;;17.77;9.15;;;;;;;;;;5033792;28;20071;-91
2022/12/18 08:48:42;;;;;;;16.15;8.38;;;;;;;;;;5053106;28;20065;-90
2022/12/18 08:51:23;;;;;;;16.45;9.15;;;;;;;;;;5050377;28;20132;-90
2022/12/18 08:53:51;;;;;;;17.52;8.80;;;;;;;;;;5052332;28;20064;-91
2022/12/18 08:56:19;;;;;;;14.98;8.13;;;;;;;;;;5053382;28;20053;-91
2022/12/18 08:58:55;;;;;;;14.90;7.25;;;;;;;;;;5052911;28;20068;-91
2022/12/18 09:01:23;;;;;;;18.35;9.82;;;;;;;;;;5052348;28;20050;-90
2022/12/18 09:03:51;;;;;;;24.33;11.45;;;;;;;;;;5051967;28;20064;-91
2022/12/18 09:06:20;;;;;;;27.10;10.25;;;;;;;;;;5052654;28;20041;-90
2022/12/18 09:08:47;;;;;;;19.55;11.10;;;;;;;;;;5050292;28;20071;-91
2022/12/18 09:11:19;;;;;;;21.65;10.75;;;;;;;;;;5050652;28;20103;-91
2022/12/18 09:13:49;;;;;;;33.22;14.95;;;;;;;;;;5050957;28;20045;-91
2022/12/18 09:16:17;;;;;;;37.78;16.88;;;;;;;;;;5050844;28;20053;-91
2022/12/18 09:18:44;;;;;;;50.25;24.30;;;;;;;;;;5050335;28;20041;-91
2022/12/18 09:21:16;;;;;;;34.58;17.42;;;;;;;;;;5054099;28;20056;-91
2022/12/18 09:23:45;;;;;;;20.75;9.70;;;;;;;;;;5051787;28;20053;-91
2022/12/18 09:26:12;;;;;;;36.25;13.88;;;;;;;;;;5052784;28;20054;-92
2022/12/18 09:28:40;;;;;;;43.15;19.35;;;;;;;;;;5053236;28;20144;-89
2022/12/18 09:31:08;;;;;;;32.67;14.60;;;;;;;;;;5052424;28;20445;-92
2022/12/18 09:33:39;;;;;;;34.10;15.48;;;;;;;;;;5054555;28;20056;-91
2022/12/18 09:36:09;;;;;;;39.88;16.27;;;;;;;;;;5052212;28;20065;-91
2022/12/18 09:38:37;;;;;;;45.85;19.45;;;;;;;;;;5051749;28;20049;-91
2022/12/18 09:41:18;;;;;;;56.40;24.67;;;;;;;;;;5052975;28;20123;-91
2022/12/18 09:43:57;;;;;;;46.97;22.17;;;;;;;;;;5054403;28;20071;-92
2022/12/18 09:46:30;;;;;;;50.10;21.58;;;;;;;;;;5064809;28;20064;-92
2022/12/18 09:49:01;;;;;;;46.50;20.85;;;;;;;;;;5066588;28;20029;-91
2022/12/18 09:51:45;;;;;;;39.10;16.88;;;;;;;;;;5050226;28;20118;-91
2022/12/18 09:54:22;;;;;;;32.65;13.52;;;;;;;;;;5050964;28;20057;-91
2022/12/18 09:56:50;;;;;;;28.48;12.05;;;;;;;;;;5050906;28;20084;-91
2022/12/18 09:59:17;;;;;;;25.73;10.65;;;;;;;;;;5050297;28;20662;-91
2022/12/18 10:01:44;;;;;;;25.85;12.25;;;;;;;;;;5048865;28;20049;-91
2022/12/18 10:04:13;;;;;;;26.35;13.38;;;;;;;;;;5036549;28;20059;-91
2022/12/18 10:06:50;;;;;;;27.00;13.50;;;;;;;;;;5035712;28;20053;-92
2022/12/18 10:09:20;;;;;;;24.30;12.50;;;;;;;;;;5052159;28;20067;-91
2022/12/18 10:11:54;;;;;;;23.65;11.57;;;;;;;;;;5051587;28;20060;-91
2022/12/18 10:14:34;;;;;;;24.90;10.77;;;;;;;;;;5049947;28;20049;-91
2022/12/18 10:17:20;;;;;;;19.77;8.90;;;;;;;;;;5049035;28;20060;-91
2022/12/18 10:19:54;;;;;;;8.98;5.45;;;;;;;;;;5056862;28;20053;-91
2022/12/18 10:22:39;;;;;;;10.48;5.50;;;;;;;;;;5055156;28;20053;-90
2022/12/18 10:25:16;;;;;;;12.13;6.30;;;;;;;;;;5053860;28;20045;-91
2022/12/18 10:27:43;;;;;;;8.30;4.68;;;;;;;;;;5049122;28;20045;-91
2022/12/18 10:30:18;;;;;;;9.75;5.03;;;;;;;;;;5049002;28;20063;-91
2022/12/18 10:32:45;;;;;;;16.67;11.98;;;;;;;;;;5051957;28;20053;-91
2022/12/18 10:35:24;;;;;;;18.25;12.75;;;;;;;;;;5052244;28;20056;-91
2022/12/18 10:38:21;;;;;;;17.75;10.90;;;;;;;;;;5052348;28;20060;-91
2022/12/18 10:40:56;;;;;;;22.20;10.65;;;;;;;;;;5053410;28;20104;-91
2022/12/18 10:43:44;;;;;;;10.57;7.18;;;;;;;;;;5053297;28;20053;-91
2022/12/18 10:46:11;;;;;;;12.35;5.75;;;;;;;;;;5036750;28;20060;-91
2022/12/18 10:48:41;;;;;;;9.18;5.63;;;;;;;;;;5052969;28;20077;-91
2022/12/18 10:51:09;;;;;;;8.73;5.22;;;;;;;;;;5054146;28;20057;-91
2022/12/18 10:53:40;;;;;;;11.98;6.03;;;;;;;;;;5053466;28;20053;-91
2022/12/18 10:56:09;;;;;;;15.55;7.53;;;;;;;;;;5054393;28;20096;-91
2022/12/18 10:58:37;;;;;;;11.32;7.40;;;;;;;;;;5055371;28;20057;-92
2022/12/18 11:01:06;;;;;;;9.02;6.43;;;;;;;;;;5065172;28;20029;-92
2022/12/18 11:03:35;;;;;;;7.93;4.78;;;;;;;;;;5073966;28;20113;-91
2022/12/18 11:06:14;;;;;;;9.30;3.85;;;;;;;;;;5053784;28;20045;-91
2022/12/18 11:08:42;;;;;;;8.55;4.00;;;;;;;;;;5053596;28;20061;-91
2022/12/18 11:11:21;;;;;;;11.50;4.93;;;;;;;;;;5053610;28;20053;-91
2022/12/18 11:14:03;;;;;;;8.63;4.50;;;;;;;;;;5053688;28;20057;-91
2022/12/18 11:16:33;;;;;;;9.25;3.80;;;;;;;;;;5053739;28;20145;-91
2022/12/18 11:19:15;;;;;;;9.30;4.93;;;;;;;;;;5054230;28;20084;-91
2022/12/18 11:21:43;;;;;;;13.68;5.50;;;;;;;;;;5054140;28;20053;-91
2022/12/18 11:24:40;;;;;;;16.13;7.20;;;;;;;;;;5053406;28;20049;-91
2022/12/18 11:27:16;;;;;;;12.30;7.40;;;;;;;;;;5028314;28;20109;-91
2022/12/18 11:29:44;;;;;;;12.07;7.20;;;;;;;;;;5055334;28;20049;-91
2022/12/18 11:32:16;;;;;;;16.42;7.03;;;;;;;;;;5065813;28;20029;-91
2022/12/18 11:34:47;;;;;;;14.27;6.20;;;;;;;;;;5075103;28;20101;-92
2022/12/18 11:37:34;;;;;;;18.08;6.78;;;;;;;;;;5071561;28;20049;-91
2022/12/18 11:40:11;;;;;;;14.52;8.02;;;;;;;;;;5059223;28;20058;-91
2022/12/18 11:42:42;;;;;;;15.52;7.32;;;;;;;;;;5056954;28;20074;-91
2022/12/18 11:45:09;;;;;;;11.10;5.63;;;;;;;;;;5054636;28;20049;-91
2022/12/18 11:47:50;;;;;;;8.25;4.35;;;;;;;;;;5058120;28;20068;-91
2022/12/18 11:50:24;;;;;;;5.60;4.15;;;;;;;;;;5051512;28;20046;-91
2022/12/18 11:52:51;;;;;;;10.88;5.28;;;;;;;;;;5052657;28;20059;-91
2022/12/18 11:55:27;;;;;;;15.93;6.32;;;;;;;;;;5051086;28;20132;-91
2022/12/18 11:58:12;;;;;;;10.75;6.00;;;;;;;;;;5051834;28;20049;-90
2022/12/18 12:00:45;;;;;;;28.45;14.10;;;;;;;;;;5051149;28;20041;-91
2022/12/18 12:03:40;;;;;;;16.38;7.57;;;;;;;;;;5052223;28;20057;-91
2022/12/18 12:06:14;;;;;;;23.23;8.15;;;;;;;;;;5051651;28;20080;-91
2022/12/18 12:08:50;;;;;;;21.63;7.78;;;;;;;;;;5051960;28;20065;-91
2022/12/18 12:11:36;;;;;;;20.35;7.20;;;;;;;;;;5053912;28;20049;-90
2022/12/18 12:14:15;;;;;;;20.60;7.78;;;;;;;;;;5054548;28;20057;-90
2022/12/18 12:16:54;;;;;;;16.38;5.88;;;;;;;;;;5065990;28;20041;-91
2022/12/18 12:19:30;;;;;;;18.00;6.93;;;;;;;;;;5062718;28;20053;-90
2022/12/18 12:22:08;;;;;;;20.88;7.28;;;;;;;;;;5057233;28;20045;-91
2022/12/18 12:24:50;;;;;;;21.02;6.95;;;;;;;;;;5051491;28;20049;-90
2022/12/18 12:27:36;;;;;;;43.63;22.10;;;;;;;;;;5050052;28;20482;-90
2022/12/18 12:30:12;;;;;;;27.75;8.38;;;;;;;;;;5050341;28;20053;-90
2022/12/18 12:32:39;;;;;;;26.50;11.40;;;;;;;;;;5053162;28;20049;-90
2022/12/18 12:35:22;;;;;;;30.85;8.02;;;;;;;;;;5052273;28;20055;-90
2022/12/18 12:38:00;;;;;;;23.85;6.70;;;;;;;;;;5052359;28;20087;-90
2022/12/18 12:40:28;;;;;;;16.13;6.25;;;;;;;;;;5051932;28;20534;-90
2022/12/18 12:43:21;;;;;;;15.43;5.88;;;;;;;;;;5050950;28;20045;-90
2022/12/18 12:45:49;;;;;;;;;;;;;;;;;;5054373;28;20053;-90
2022/12/18 12:48:33;;;;;;;10.63;5.03;;;;;;;;;;5037687;28;19920;-90
2022/12/18 12:51:02;;;;;;;9.23;5.38;;;;;;;;;;5051332;28;20045;-89
2022/12/18 12:53:33;;;;;;;6.82;4.28;;;;;;;;;;5052021;28;20049;-90
2022/12/18 12:56:00;;;;;;;8.00;4.10;;;;;;;;;;5050777;28;20049;-90
2022/12/18 12:58:39;;;;;;;8.57;4.50;;;;;;;;;;5051192;28;20054;-90
2022/12/18 13:01:10;;;;;;;11.45;5.25;;;;;;;;;;5050215;28;20063;-89
2022/12/18 13:03:47;;;;;;;8.07;4.45;;;;;;;;;;5051719;28;20049;-90
2022/12/18 13:06:20;;;;;;;7.05;4.25;;;;;;;;;;5050925;28;20486;-90
2022/12/18 13:08:56;;;;;;;5.65;4.18;;;;;;;;;;5050684;28;20136;-90
2022/12/18 13:14:41;;;;;;;21.20;10.63;;;;;;;;;;5035527;28;20517;-90
2022/12/18 13:17:16;;;;;;;13.60;8.27;;;;;;;;;;5049287;28;20072;-89
2022/12/18 13:19:44;;;;;;;45.65;25.88;;;;;;;;;;5051319;28;20057;-89
2022/12/18 13:22:22;;;;;;;83.45;47.03;;;;;;;;;;5052349;28;20060;-89
2022/12/18 13:24:50;;;;;;;66.47;36.97;;;;;;;;;;5052679;28;20077;-89
2022/12/18 13:27:37;;;;;;;56.10;31.15;;;;;;;;;;5051820;28;20052;-89
2022/12/18 13:30:25;;;;;;;57.90;35.13;;;;;;;;;;5041755;28;20040;-89
2022/12/18 13:33:12;;;;;;;62.70;35.97;;;;;;;;;;5069687;28;20052;-89
2022/12/18 13:35:41;;;;;;;72.38;42.80;;;;;;;;;;5051769;28;20136;-89
2022/12/18 13:38:23;;;;;;;48.60;27.38;;;;;;;;;;5050277;28;20079;-90
2022/12/18 13:40:50;;;;;;;44.38;26.05;;;;;;;;;;5050757;28;20059;-89
2022/12/18 13:43:20;;;;;;;37.25;17.35;;;;;;;;;;5050791;28;20053;-89
2022/12/18 13:46:01;;;;;;;38.72;20.75;;;;;;;;;;5049806;28;20053;-89
2022/12/18 13:48:30;;;;;;;38.42;20.35;;;;;;;;;;5050221;28;20096;-89
2022/12/18 13:51:08;;;;;;;34.72;14.55;;;;;;;;;;5050538;28;20490;-89
2022/12/18 13:53:39;;;;;;;28.40;12.80;;;;;;;;;;5050545;28;20457;-89
2022/12/18 13:56:07;;;;;;;23.45;12.18;;;;;;;;;;5049552;28;20564;-89
2022/12/18 13:58:34;;;;;;;25.52;11.90;;;;;;;;;;5051221;28;20061;-88
2022/12/18 14:01:04;;;;;;;22.00;12.10;;;;;;;;;;5050505;28;20054;-89
2022/12/18 14:03:32;;;;;;;18.80;10.13;;;;;;;;;;5050136;28;20057;-87
2022/12/18 14:06:01;;;;;;;17.45;10.88;;;;;;;;;;5051244;28;20049;-88
2022/12/18 14:08:33;;;;;;;17.60;9.10;;;;;;;;;;5054350;28;20049;-88
2022/12/18 14:11:01;;;;;;;20.05;9.25;;;;;;;;;;5053979;28;20053;-88
2022/12/18 14:13:31;;;;;;;18.95;9.30;;;;;;;;;;5053787;28;20437;-89
2022/12/18 14:16:01;;;;;;;12.60;7.65;;;;;;;;;;5053719;28;20137;-89
2022/12/18 14:18:34;;;;;;;17.67;7.78;;;;;;;;;;5052899;28;20460;-89
2022/12/18 14:21:03;;;;;;;15.82;7.32;;;;;;;;;;5052346;28;20053;-88
2022/12/18 14:23:39;;;;;;;16.08;7.45;;;;;;;;;;5052261;28;20053;-89
2022/12/18 14:26:23;;;;;;;11.43;7.40;;;;;;;;;;5051968;28;20049;-89
2022/12/18 14:28:51;;;;;;;15.23;8.80;;;;;;;;;;5051947;28;20045;-89
2022/12/18 14:31:19;;;;;;;17.90;8.75;;;;;;;;;;5052042;28;20053;-89
2022/12/18 14:33:46;;;;;;;16.10;8.02;;;;;;;;;;5052273;28;20057;-89
2022/12/18 14:36:27;;;;;;;19.83;12.27;;;;;;;;;;5053184;28;20045;-88
2022/12/18 14:38:58;;;;;;;16.60;12.10;;;;;;;;;;5053062;28;20057;-89
2022/12/18 14:41:26;;;;;;;25.10;10.68;;;;;;;;;;5052814;28;20045;-88
2022/12/18 14:43:54;;;;;;;18.77;9.68;;;;;;;;;;5053718;28;20049;-89
2022/12/18 14:46:28;;;;;;;14.57;8.05;;;;;;;;;;5061567;28;20049;-89
2022/12/18 14:48:55;;;;;;;12.68;7.45;;;;;;;;;;5065833;28;20052;-89
2022/12/18 14:51:26;;;;;;;11.82;8.02;;;;;;;;;;5052666;28;20412;-89
2022/12/18 14:54:03;;;;;;;17.40;8.32;;;;;;;;;;5053252;28;20053;-89
2022/12/18 14:56:32;;;;;;;14.00;8.18;;;;;;;;;;5052830;28;20115;-89
2022/12/18 14:59:16;;;;;;;18.92;9.48;;;;;;;;;;5052056;28;20049;-88
2022/12/18 15:01:50;;;;;;;15.45;9.07;;;;;;;;;;5051184;28;20049;-89
2022/12/18 15:04:25;;;;;;;17.10;9.25;;;;;;;;;;5051619;28;20152;-89